Time;durP1;ratioP1;P1;durP2;ratioP2;P2;SDS_P1;SDS_P2;PMS_P1;PMS_P2;Temp;Humidity;BMP_temperature;BMP_pressure;BME280_temperature;BME280_humidity;BME280_pressure;Samples;Min_cycle;Max_cycle;Signal;HPM_P1;HPM_P2
2022/01/25 00:27:02;;;;;;;31.43;18.50;;;0.80;83.20;;;;;;6244853;28;20178;-59
2022/01/25 00:33:39;;;;;;;32.87;19.00;;;0.80;83.30;;;;;;6235924;28;20206;-59
2022/01/25 00:36:40;;;;;;;26.20;17.53;;;0.80;83.60;;;;;;6269491;28;20190;-59
2022/01/25 00:39:41;;;;;;;28.23;17.97;;;0.90;83.30;;;;;;6232379;28;20198;-59
2022/01/25 00:42:42;;;;;;;25.87;16.93;;;0.80;83.20;;;;;;6216677;28;20238;-59
2022/01/25 00:45:43;;;;;;;27.30;16.73;;;0.80;83.30;;;;;;6249113;28;20280;-59
2022/01/25 00:48:50;;;;;;;27.67;18.13;;;0.90;83.10;;;;;;6240956;28;20193;-59
2022/01/25 00:54:53;;;;;;;29.30;17.73;;;0.90;83.00;;;;;;6273178;28;20197;-60
2022/01/25 00:57:54;;;;;;;25.80;16.83;;;0.80;82.90;;;;;;6238656;28;20290;-60
2022/01/25 01:00:56;;;;;;;29.23;17.97;;;0.80;83.40;;;;;;6231086;28;20224;-60
2022/01/25 01:03:57;;;;;;;27.80;17.77;;;0.80;83.50;;;;;;6240976;28;20285;-60
2022/01/25 01:07:01;;;;;;;23.77;16.17;;;0.70;83.30;;;;;;6240658;28;20200;-59
2022/01/25 01:10:04;;;;;;;25.90;16.70;;;0.80;83.60;;;;;;6257270;28;20197;-59
2022/01/25 01:51:51;;;;;;;21.73;13.57;;;0.60;83.60;;;;;;6264634;28;20263;-61
2022/01/25 01:54:52;;;;;;;21.67;13.00;;;0.60;82.90;;;;;;6239888;28;20235;-62
2022/01/25 01:57:55;;;;;;;23.07;13.80;;;0.60;82.50;;;;;;6239493;28;20194;-62
2022/01/25 02:00:55;;;;;;;17.90;11.60;;;0.50;82.00;;;;;;6256474;28;20217;-62
2022/01/25 02:03:58;;;;;;;18.30;11.53;;;0.50;82.10;;;;;;6228217;28;20221;-62
2022/01/25 02:06:59;;;;;;;15.77;10.77;;;0.40;81.90;;;;;;6240512;28;20183;-62
2022/01/25 02:10:00;;;;;;;15.23;10.70;;;0.50;81.80;;;;;;6264652;28;20199;-63
2022/01/25 02:13:07;;;;;;;19.77;12.00;;;0.40;81.60;;;;;;6261454;28;20197;-63
2022/01/25 02:16:16;;;;;;;15.40;10.57;;;0.40;81.80;;;;;;6220777;28;20196;-63
2022/01/25 02:22:37;;;;;;;14.43;9.97;;;0.50;81.40;;;;;;6281949;28;20190;-63
2022/01/25 02:25:37;;;;;;;15.47;10.43;;;0.50;80.90;;;;;;6238657;28;20301;-59
2022/01/25 02:28:41;;;;;;;14.47;8.83;;;0.40;81.10;;;;;;6256483;28;20214;-58
2022/01/25 02:31:42;;;;;;;15.67;10.13;;;0.30;81.30;;;;;;6256258;28;20190;-59
2022/01/25 02:34:43;;;;;;;17.90;11.33;;;0.20;81.70;;;;;;6239725;28;20193;-59
2022/01/25 02:37:44;;;;;;;14.00;9.57;;;0.20;82.10;;;;;;6256207;28;20193;-60
2022/01/25 02:40:45;;;;;;;21.87;11.73;;;0.10;82.10;;;;;;6239202;28;20213;-60
2022/01/25 02:43:47;;;;;;;15.33;11.07;;;0.10;82.30;;;;;;6272150;28;20269;-60
2022/01/25 02:49:48;;;;;;;18.90;10.97;;;0.10;82.30;;;;;;6239557;28;20197;-59
2022/01/25 02:52:50;;;;;;;17.23;11.20;;;0.00;82.30;;;;;;6265637;28;20194;-59
2022/01/25 02:55:51;;;;;;;16.03;9.97;;;0.00;82.70;;;;;;6238386;28;20206;-60
2022/01/25 02:58:52;;;;;;;17.87;10.70;;;0.00;82.80;;;;;;6280508;28;20204;-60
2022/01/25 03:01:53;;;;;;;16.73;11.30;;;0.00;82.90;;;;;;6240423;28;20291;-59
2022/01/25 03:04:54;;;;;;;18.27;10.53;;;0.00;83.00;;;;;;6239481;28;20204;-59
2022/01/25 03:07:56;;;;;;;17.87;11.17;;;0.00;83.10;;;;;;6240320;28;20216;-60
2022/01/25 03:10:57;;;;;;;17.97;11.10;;;0.00;83.00;;;;;;6229247;28;20228;-60
2022/01/25 03:14:02;;;;;;;16.53;10.23;;;0.00;82.90;;;;;;6244023;28;20178;-59
2022/01/25 03:17:08;;;;;;;17.57;11.17;;;0.00;82.90;;;;;;6226929;28;20257;-59
2022/01/25 03:20:18;;;;;;;16.70;10.87;;;0.00;83.00;;;;;;6240420;28;20213;-58
2022/01/25 03:23:20;;;;;;;16.27;11.10;;;0.00;82.80;;;;;;6220600;28;20212;-58
2022/01/25 03:26:23;;;;;;;18.97;11.47;;;0.00;82.90;;;;;;6243303;28;20189;-57
2022/01/25 03:29:24;;;;;;;17.00;10.67;;;-3276.70;83.00;;;;;;6251924;28;20246;-57
2022/01/25 03:32:24;;;;;;;18.43;10.70;;;0.00;83.00;;;;;;6250535;28;20199;-59
2022/01/25 03:35:25;;;;;;;19.53;11.30;;;0.00;82.70;;;;;;6243073;28;20228;-59
2022/01/25 03:38:26;;;;;;;18.73;11.37;;;0.00;82.60;;;;;;6259604;28;20189;-59
2022/01/25 03:41:27;;;;;;;14.73;10.13;;;0.00;82.80;;;;;;6239974;28;20685;-59
2022/01/25 03:44:28;;;;;;;15.90;10.07;;;0.00;82.60;;;;;;6229987;28;20236;-63
2022/01/25 03:47:43;;;;;;;15.53;9.73;;;0.10;82.30;;;;;;6242521;28;20194;-63
2022/01/25 03:50:46;;;;;;;15.70;10.50;;;0.00;82.10;;;;;;6242837;28;20218;-63
2022/01/25 03:53:47;;;;;;;15.13;10.03;;;0.00;82.10;;;;;;6259427;28;20277;-63
2022/01/25 03:56:48;;;;;;;15.03;10.30;;;0.00;82.20;;;;;;6242071;28;20200;-62
2022/01/25 03:59:49;;;;;;;16.13;10.13;;;0.00;82.10;;;;;;6248662;28;20191;-62
2022/01/25 04:03:03;;;;;;;17.30;11.23;;;0.00;82.00;;;;;;6246246;28;20227;-62
2022/01/25 04:06:04;;;;;;;16.87;10.30;;;-3276.70;82.30;;;;;;6236651;28;20206;-60
2022/01/25 04:09:07;;;;;;;16.57;10.03;;;-3276.60;82.70;;;;;;6235427;28;20202;-60
2022/01/25 04:12:09;;;;;;;16.10;10.17;;;-3276.50;82.80;;;;;;6259289;28;20194;-60
2022/01/25 04:15:10;;;;;;;15.50;11.57;;;-3276.50;82.90;;;;;;6265414;28;20225;-60
2022/01/25 04:21:42;;;;;;;15.93;10.60;;;-3276.40;82.80;;;;;;6251138;28;20309;-60
2022/01/25 04:27:58;;;;;;;17.03;9.43;;;-3276.30;83.20;;;;;;6257014;28;20218;-60
2022/01/25 04:30:58;;;;;;;14.27;9.53;;;-3276.20;83.20;;;;;;6223502;28;20208;-60
2022/01/25 04:34:25;;;;;;;14.50;10.27;;;-3276.20;83.30;;;;;;6240650;28;20229;-60
2022/01/25 05:00:41;;;;;;;16.57;10.17;;;-3275.80;84.10;;;;;;6248845;28;20233;-60
2022/01/25 05:06:56;;;;;;;16.50;10.20;;;-3275.70;84.00;;;;;;6273795;28;20202;-59
2022/01/25 05:09:58;;;;;;;16.23;10.37;;;-3275.80;83.90;;;;;;6253694;28;20209;-59
2022/01/25 05:13:18;;;;;;;16.83;9.67;;;-3275.70;83.80;;;;;;6259344;28;20205;-60
2022/01/25 05:16:34;;;;;;;17.53;10.43;;;-3275.70;83.80;;;;;;6248224;28;20207;-60
2022/01/25 05:22:35;;;;;;;18.20;10.00;;;-3275.60;84.20;;;;;;6218547;28;20216;-60
2022/01/25 05:25:36;;;;;;;15.23;9.90;;;-3275.50;84.10;;;;;;6233972;28;20195;-60
2022/01/25 05:28:37;;;;;;;15.47;9.87;;;-3275.50;84.30;;;;;;6252062;28;20204;-60
2022/01/25 05:31:38;;;;;;;13.47;9.50;;;-3275.50;83.90;;;;;;6256938;28;20197;-61
2022/01/25 05:34:40;;;;;;;14.43;9.47;;;-3275.40;84.20;;;;;;6246016;28;20218;-60
2022/01/25 05:37:42;;;;;;;15.77;9.60;;;-3275.40;84.40;;;;;;6232212;28;20214;-60
2022/01/25 05:40:46;;;;;;;18.20;10.43;;;-3275.40;84.40;;;;;;6231455;28;20214;-61
2022/01/25 05:49:59;;;;;;;16.53;10.03;;;-3275.30;84.10;;;;;;6234496;28;20236;-61
2022/01/25 05:53:00;;;;;;;15.90;9.87;;;-3275.30;83.60;;;;;;6232268;28;20190;-61
2022/01/25 05:56:00;;;;;;;16.10;9.73;;;-3275.30;83.60;;;;;;6240237;28;20195;-61
2022/01/25 05:59:01;;;;;;;16.37;9.90;;;-3275.30;83.90;;;;;;6249095;28;20195;-61
2022/01/25 06:02:03;;;;;;;17.27;10.50;;;-3275.20;83.90;;;;;;6247671;28;20301;-61
2022/01/25 06:05:06;;;;;;;14.70;9.33;;;-3275.30;84.10;;;;;;6264193;28;20194;-61
2022/01/25 06:08:07;;;;;;;16.20;9.67;;;-3275.30;84.10;;;;;;6255067;28;20186;-61
2022/01/25 06:11:08;;;;;;;15.27;10.03;;;-3275.20;84.30;;;;;;6236705;28;20255;-62
2022/01/25 06:14:09;;;;;;;16.80;9.10;;;-3275.20;84.50;;;;;;6231103;28;20204;-62
2022/01/25 06:17:10;;;;;;;19.07;9.87;;;-3275.20;84.60;;;;;;6228889;28;20202;-62
2022/01/25 06:20:11;;;;;;;15.47;10.00;;;-3275.20;84.80;;;;;;6233206;28;20219;-62
2022/01/25 06:23:11;;;;;;;13.00;8.67;;;-3275.20;84.80;;;;;;6240168;28;20208;-62
2022/01/25 06:26:12;;;;;;;17.97;10.77;;;-3275.10;84.60;;;;;;6239589;28;20198;-61
2022/01/25 06:29:17;;;;;;;15.97;10.63;;;-3275.10;84.60;;;;;;6240245;28;20240;-61
2022/01/25 06:32:19;;;;;;;17.40;10.50;;;-3275.10;84.70;;;;;;6255981;28;20184;-61
2022/01/25 06:35:20;;;;;;;15.63;9.83;;;-3275.10;84.70;;;;;;6234170;28;20199;-61
2022/01/25 06:38:21;;;;;;;16.30;10.33;;;-3275.10;84.60;;;;;;6243778;28;20212;-61
2022/01/25 06:41:22;;;;;;;18.30;11.23;;;-3275.10;84.60;;;;;;6251001;28;20217;-61
2022/01/25 06:44:23;;;;;;;16.57;9.73;;;-3275.10;84.20;;;;;;6255579;28;20701;-61
2022/01/25 06:47:23;;;;;;;16.80;10.57;;;-3275.10;84.30;;;;;;6276633;28;20191;-61
2022/01/25 06:50:24;;;;;;;16.90;9.93;;;-3275.10;84.60;;;;;;6239571;28;20192;-62
2022/01/25 06:53:25;;;;;;;17.03;9.87;;;-3275.10;84.60;;;;;;6268811;28;20201;-62
2022/01/25 06:56:26;;;;;;;16.40;10.73;;;-3275.20;84.70;;;;;;6234656;28;20204;-62
2022/01/25 06:59:27;;;;;;;18.10;10.20;;;-3275.20;84.60;;;;;;6237551;28;20230;-62
2022/01/25 07:02:28;;;;;;;17.70;10.97;;;-3275.20;84.70;;;;;;6234610;28;20222;-61
2022/01/25 07:05:29;;;;;;;14.60;10.90;;;-3275.10;84.80;;;;;;6260698;28;20186;-60
2022/01/25 07:08:30;;;;;;;17.17;9.87;;;-3275.20;84.60;;;;;;6252683;28;20194;-60
2022/01/25 07:11:31;;;;;;;18.63;11.10;;;-3275.20;84.50;;;;;;6242325;28;20257;-60
2022/01/25 07:14:32;;;;;;;14.50;9.83;;;-3275.20;84.30;;;;;;6235960;28;20190;-61
2022/01/25 07:17:33;;;;;;;17.50;11.17;;;-3275.20;84.30;;;;;;6265533;28;20190;-62
2022/01/25 07:20:34;;;;;;;21.27;12.30;;;-3275.10;84.30;;;;;;6259418;28;20273;-61
2022/01/25 07:23:35;;;;;;;18.53;12.67;;;-3275.20;84.40;;;;;;6235954;28;20216;-63
2022/01/25 07:26:35;;;;;;;19.83;12.97;;;-3275.20;84.30;;;;;;6239936;28;20195;-62
2022/01/25 07:29:36;;;;;;;20.40;12.57;;;-3275.20;84.30;;;;;;6235276;28;20197;-60
2022/01/25 07:32:37;;;;;;;21.50;13.37;;;-3275.30;84.40;;;;;;6243226;28;20212;-61
2022/01/25 07:35:40;;;;;;;23.23;13.43;;;-3275.40;84.20;;;;;;6240585;28;20243;-61
2022/01/25 07:38:40;;;;;;;24.30;14.17;;;-3275.50;84.50;;;;;;6276530;28;20226;-61
2022/01/25 07:41:43;;;;;;;24.87;15.00;;;-3275.50;84.70;;;;;;6259212;28;20221;-61
2022/01/25 07:44:44;;;;;;;20.00;13.37;;;-3275.40;84.70;;;;;;6261898;28;20353;-61
2022/01/25 07:47:45;;;;;;;21.13;12.93;;;-3275.50;84.80;;;;;;6251459;28;20193;-61
2022/01/25 07:50:47;;;;;;;23.60;14.20;;;-3275.50;84.80;;;;;;6241527;28;20193;-61
2022/01/25 07:53:48;;;;;;;26.90;16.33;;;-3275.40;85.10;;;;;;6243654;28;20219;-61
2022/01/25 07:56:49;;;;;;;24.40;15.33;;;-3275.40;85.40;;;;;;6241814;28;20192;-60
2022/01/25 07:59:50;;;;;;;22.67;13.50;;;-3275.50;85.20;;;;;;6245337;28;20200;-61
2022/01/25 08:02:51;;;;;;;24.27;14.43;;;-3275.40;85.50;;;;;;6251221;28;20180;-61
2022/01/25 08:05:52;;;;;;;22.97;14.10;;;-3275.50;85.30;;;;;;6231656;28;20288;-61
2022/01/25 08:08:53;;;;;;;26.63;16.07;;;-3275.50;85.40;;;;;;6239896;28;20200;-61
2022/01/25 08:11:54;;;;;;;24.23;14.67;;;-3275.60;85.20;;;;;;6253801;28;20201;-62
2022/01/25 08:14:57;;;;;;;21.93;14.13;;;-3275.60;85.30;;;;;;6242133;28;20206;-60
2022/01/25 08:17:58;;;;;;;22.30;14.03;;;-3275.60;85.30;;;;;;6259351;28;20288;-60
2022/01/25 08:20:59;;;;;;;25.10;15.57;;;-3275.60;85.50;;;;;;6241633;28;20221;-60
2022/01/25 08:24:00;;;;;;;25.60;15.07;;;-3275.70;85.00;;;;;;6258910;28;20196;-61
2022/01/25 08:27:01;;;;;;;31.07;16.87;;;-3275.80;85.10;;;;;;6258463;28;20243;-61
2022/01/25 08:30:03;;;;;;;24.70;16.60;;;-3275.80;85.30;;;;;;6256686;28;20181;-63
2022/01/25 08:33:04;;;;;;;25.40;15.90;;;-3275.90;85.10;;;;;;6241274;28;20287;-61
2022/01/25 08:36:05;;;;;;;25.07;16.57;;;-3275.90;85.50;;;;;;6241424;28;20195;-62
2022/01/25 08:39:07;;;;;;;28.77;17.77;;;-3276.00;85.40;;;;;;6258146;28;20195;-61
2022/01/25 08:42:08;;;;;;;30.10;18.73;;;-3276.00;85.60;;;;;;6241560;28;20276;-62
2022/01/25 08:45:11;;;;;;;33.90;18.60;;;-3276.00;85.80;;;;;;6257705;28;20186;-62
2022/01/25 08:48:11;;;;;;;36.63;19.87;;;-3276.20;85.80;;;;;;6241362;28;20261;-63
2022/01/25 08:51:14;;;;;;;31.17;19.13;;;-3276.20;85.70;;;;;;6236024;28;20198;-62
2022/01/25 08:54:16;;;;;;;38.27;22.40;;;-3276.30;85.50;;;;;;6233611;28;20197;-62
2022/01/25 08:57:17;;;;;;;37.50;20.87;;;-3276.40;85.60;;;;;;6241735;28;20197;-62
2022/01/25 09:00:18;;;;;;;35.57;20.13;;;-3276.40;85.50;;;;;;6251550;28;20256;-62
2022/01/25 09:03:19;;;;;;;30.73;18.30;;;-3276.40;85.80;;;;;;6249450;28;20190;-62
2022/01/25 09:06:21;;;;;;;33.87;20.33;;;-3276.50;85.90;;;;;;6274112;28;20190;-61
2022/01/25 09:09:22;;;;;;;32.77;20.40;;;-3276.60;85.70;;;;;;6268822;28;20178;-62
2022/01/25 09:12:23;;;;;;;28.87;17.37;;;-3276.60;85.50;;;;;;6233778;28;20182;-62
2022/01/25 09:15:24;;;;;;;30.10;18.83;;;-3276.70;85.50;;;;;;6232822;28;20283;-62
2022/01/25 09:18:25;;;;;;;33.20;19.93;;;-3276.70;85.50;;;;;;6238859;28;20189;-61
2022/01/25 09:21:27;;;;;;;35.47;19.10;;;-3276.70;85.20;;;;;;6241049;28;20225;-62
2022/01/25 09:24:28;;;;;;;30.93;19.23;;;0.00;85.20;;;;;;6256817;28;20185;-62
2022/01/25 09:27:29;;;;;;;31.00;19.83;;;0.00;85.30;;;;;;6241089;28;20204;-61
2022/01/25 09:30:30;;;;;;;32.87;19.87;;;0.20;85.10;;;;;;6218733;28;20194;-61
2022/01/25 09:33:31;;;;;;;32.00;20.77;;;0.30;85.10;;;;;;6221245;28;20193;-61
2022/01/25 09:36:33;;;;;;;37.80;21.13;;;0.40;84.90;;;;;;6273813;28;20193;-62
2022/01/25 09:39:34;;;;;;;37.50;20.33;;;0.40;84.90;;;;;;6240330;28;20745;-62
2022/01/25 09:42:35;;;;;;;37.07;22.17;;;0.60;84.50;;;;;;6256656;28;20288;-62
2022/01/25 09:45:36;;;;;;;30.90;20.00;;;0.80;84.20;;;;;;6247320;28;20200;-61
2022/01/25 09:48:37;;;;;;;30.47;20.30;;;0.80;84.00;;;;;;6257176;28;20591;-62
2022/01/25 09:51:41;;;;;;;31.03;19.90;;;0.90;83.50;;;;;;6256695;28;20197;-61
2022/01/25 09:54:42;;;;;;;29.13;17.77;;;0.90;83.30;;;;;;6224330;28;20229;-62
2022/01/25 09:57:43;;;;;;;36.60;20.27;;;1.10;82.40;;;;;;6248737;28;20190;-61
2022/01/25 10:00:47;;;;;;;34.07;19.80;;;1.30;82.00;;;;;;6285885;28;20243;-61
2022/01/25 10:03:48;;;;;;;38.37;20.77;;;1.40;81.20;;;;;;6272540;28;20247;-61
2022/01/25 10:06:49;;;;;;;33.93;19.20;;;1.40;81.10;;;;;;6215894;28;20213;-61
2022/01/25 10:09:50;;;;;;;30.97;18.60;;;1.60;80.50;;;;;;6253054;28;20200;-61
2022/01/25 10:12:51;;;;;;;26.47;16.67;;;1.70;80.50;;;;;;6232603;28;20181;-61
2022/01/25 10:16:05;;;;;;;30.73;18.17;;;1.70;80.10;;;;;;6268819;28;20186;-61
2022/01/25 10:19:08;;;;;;;30.13;16.90;;;1.80;79.70;;;;;;6254626;28;20261;-60
2022/01/25 10:22:14;;;;;;;36.67;17.57;;;1.90;79.40;;;;;;6272479;28;20218;-60
2022/01/25 10:25:29;;;;;;;26.73;15.90;;;2.00;78.60;;;;;;6274565;28;20251;-60
2022/01/25 10:28:31;;;;;;;32.50;18.00;;;2.00;78.80;;;;;;6262445;28;20182;-59
2022/01/25 10:31:37;;;;;;;29.57;17.50;;;2.20;77.50;;;;;;6235948;28;20204;-62
2022/01/25 10:34:44;;;;;;;23.20;14.57;;;2.30;77.90;;;;;;6269189;28;20197;-60
2022/01/25 10:37:45;;;;;;;26.70;15.93;;;2.30;77.10;;;;;;6277420;28;20194;-60
2022/01/25 10:40:54;;;;;;;30.90;17.27;;;2.30;77.60;;;;;;6244064;28;20224;-60
2022/01/25 10:43:56;;;;;;;27.47;17.13;;;2.30;77.40;;;;;;6260376;28;20256;-60
2022/01/25 10:46:57;;;;;;;27.60;16.60;;;2.50;76.90;;;;;;6266631;28;20212;-60
2022/01/25 10:49:58;;;;;;;26.73;16.07;;;2.60;76.30;;;;;;6236935;28;20475;-60
2022/01/25 10:53:07;;;;;;;25.40;16.07;;;2.70;76.40;;;;;;6244364;28;20190;-60
2022/01/25 10:56:09;;;;;;;31.33;16.93;;;2.80;75.80;;;;;;6259455;28;20191;-60
2022/01/25 10:59:14;;;;;;;23.20;14.00;;;2.80;75.20;;;;;;6248724;28;20202;-60
2022/01/25 11:02:21;;;;;;;24.87;15.33;;;2.90;74.80;;;;;;6256745;28;20202;-61
2022/01/25 11:05:22;;;;;;;25.40;15.43;;;3.10;74.90;;;;;;6251212;28;20202;-61
2022/01/25 11:08:24;;;;;;;20.53;13.73;;;3.10;74.30;;;;;;6237979;28;20201;-61
2022/01/25 11:11:32;;;;;;;23.43;14.80;;;3.10;75.10;;;;;;6276033;28;20194;-58
2022/01/25 11:17:53;;;;;;;23.93;14.30;;;3.30;73.60;;;;;;6250278;28;20194;-61
2022/01/25 11:20:54;;;;;;;21.23;13.03;;;3.40;73.50;;;;;;6242330;28;20224;-61
2022/01/25 11:23:56;;;;;;;23.83;15.73;;;3.50;73.00;;;;;;6260204;28;20196;-60
2022/01/25 11:27:04;;;;;;;27.50;14.47;;;3.70;72.20;;;;;;6238488;28;20228;-61
2022/01/25 11:30:11;;;;;;;22.07;13.87;;;3.50;72.40;;;;;;6235091;28;20213;-60
2022/01/25 11:33:12;;;;;;;25.83;15.07;;;3.60;72.50;;;;;;6249416;28;20190;-61
2022/01/25 11:36:14;;;;;;;22.67;14.10;;;3.50;72.30;;;;;;6260007;28;20194;-61
2022/01/25 11:39:18;;;;;;;23.00;13.80;;;3.60;72.00;;;;;;6259517;28;20216;-61
2022/01/25 11:42:26;;;;;;;20.53;12.80;;;3.80;72.10;;;;;;6232854;28;20229;-61
2022/01/25 11:45:30;;;;;;;20.37;13.83;;;3.80;72.30;;;;;;6250513;28;20189;-60
2022/01/25 11:48:41;;;;;;;17.80;12.50;;;4.00;72.10;;;;;;6276339;28;20201;-60
2022/01/25 11:51:42;;;;;;;20.07;13.30;;;4.00;71.90;;;;;;6266207;28;20197;-60
2022/01/25 11:54:44;;;;;;;19.70;13.17;;;4.10;71.90;;;;;;6242984;28;20186;-59
2022/01/25 11:57:53;;;;;;;18.60;13.03;;;4.40;70.30;;;;;;6243330;28;20174;-61
2022/01/25 12:01:00;;;;;;;18.70;12.77;;;4.50;69.90;;;;;;6276540;28;20253;-60
2022/01/25 12:04:06;;;;;;;23.80;14.07;;;4.60;69.50;;;;;;6273361;28;20197;-60
2022/01/25 12:07:23;;;;;;;21.13;12.63;;;4.80;69.10;;;;;;6266674;28;20217;-61
2022/01/25 12:10:35;;;;;;;20.27;14.30;;;4.70;69.70;;;;;;6247528;28;20232;-60
2022/01/25 12:13:36;;;;;;;20.93;13.37;;;4.80;68.50;;;;;;6253973;28;20235;-60
2022/01/25 12:16:43;;;;;;;22.87;14.30;;;5.00;67.70;;;;;;6236647;28;20205;-60
2022/01/25 12:19:47;;;;;;;17.47;12.77;;;5.10;68.40;;;;;;6266965;28;20227;-60
2022/01/25 12:23:10;;;;;;;20.30;13.43;;;5.30;67.40;;;;;;6271408;28;20248;-60
2022/01/25 12:26:17;;;;;;;18.40;12.53;;;5.30;65.80;;;;;;6260753;28;20301;-61
2022/01/25 12:29:37;;;;;;;21.23;13.60;;;5.40;66.60;;;;;;6232973;28;20186;-60
2022/01/25 12:32:59;;;;;;;21.80;12.60;;;5.50;66.60;;;;;;6270918;28;20197;-50
2022/01/25 12:36:08;;;;;;;21.77;12.67;;;5.80;65.50;;;;;;6252996;28;20202;-60
2022/01/25 12:39:11;;;;;;;20.07;12.87;;;6.00;64.50;;;;;;6274758;28;20213;-60
2022/01/25 12:42:11;;;;;;;22.13;13.33;;;6.20;63.70;;;;;;6240507;28;20245;-60
2022/01/25 12:45:17;;;;;;;21.63;13.47;;;6.30;63.20;;;;;;6258112;28;20267;-60
2022/01/25 12:48:21;;;;;;;20.33;13.37;;;6.40;62.50;;;;;;6223072;28;20244;-60
2022/01/25 12:51:25;;;;;;;21.53;12.03;;;6.30;62.90;;;;;;6273996;28;20197;-60
2022/01/25 12:54:28;;;;;;;18.00;12.93;;;6.30;64.20;;;;;;6257883;28;20244;-60
2022/01/25 12:57:30;;;;;;;21.10;13.03;;;6.50;62.30;;;;;;6238071;28;20226;-61
2022/01/25 13:00:41;;;;;;;17.37;12.87;;;6.60;63.20;;;;;;6241112;28;20224;-60
2022/01/25 13:03:52;;;;;;;19.53;13.70;;;6.70;62.60;;;;;;6249410;28;20183;-60
2022/01/25 13:06:53;;;;;;;21.07;14.13;;;6.90;61.20;;;;;;6249317;28;20240;-61
2022/01/25 13:09:55;;;;;;;20.13;13.20;;;6.90;61.60;;;;;;6270305;28;20198;-60
2022/01/25 13:12:59;;;;;;;18.70;12.30;;;7.10;61.20;;;;;;6241362;28;20248;-60
2022/01/25 13:15:59;;;;;;;17.53;12.70;;;7.30;60.30;;;;;;6241452;28;20198;-60
2022/01/25 13:19:00;;;;;;;19.70;12.77;;;7.50;59.20;;;;;;6220984;28;20209;-60
2022/01/25 13:22:08;;;;;;;16.90;11.40;;;7.70;58.30;;;;;;6244028;28;20259;-60
2022/01/25 13:25:28;;;;;;;17.17;11.83;;;7.80;58.00;;;;;;6225214;28;20195;-60
2022/01/25 13:28:36;;;;;;;16.00;11.80;;;7.80;59.10;;;;;;6254237;28;20187;-60
2022/01/25 13:31:37;;;;;;;17.03;11.33;;;8.00;57.30;;;;;;6239641;28;20221;-59
2022/01/25 13:34:38;;;;;;;16.10;10.97;;;8.10;57.30;;;;;;6230012;28;20198;-60
2022/01/25 13:37:39;;;;;;;15.17;11.03;;;8.30;56.70;;;;;;6240990;28;20193;-60
2022/01/25 13:46:58;;;;;;;12.73;9.60;;;9.50;53.30;;;;;;6274543;28;20189;-60
2022/01/25 13:50:00;;;;;;;12.13;9.40;;;10.70;48.80;;;;;;6240535;28;20201;-60
2022/01/25 13:53:01;;;;;;;14.53;9.63;;;12.30;45.40;;;;;;6239549;28;20248;-59
2022/01/25 13:56:03;;;;;;;12.00;9.30;;;14.00;41.10;;;;;;6240235;28;20198;-59
2022/01/25 13:59:06;;;;;;;12.17;9.30;;;14.80;37.70;;;;;;6257015;28;20197;-60
2022/01/25 14:02:11;;;;;;;14.23;9.77;;;15.40;37.70;;;;;;6238631;28;20246;-57
2022/01/25 14:05:12;;;;;;;12.63;10.30;;;15.80;36.20;;;;;;6252953;28;20191;-58
2022/01/25 14:08:13;;;;;;;13.47;10.20;;;16.00;35.90;;;;;;6256400;28;20231;-57
2022/01/25 14:11:32;;;;;;;10.23;8.87;;;16.20;34.70;;;;;;6256853;28;20293;-57
2022/01/25 14:21:41;;;;;;;12.03;7.97;;;14.80;36.40;;;;;;6275683;28;20305;-57
2022/01/25 14:24:53;;;;;;;11.80;9.57;;;14.80;36.30;;;;;;6232365;28;20195;-58
2022/01/25 14:27:57;;;;;;;9.70;6.77;;;15.20;35.40;;;;;;6239881;28;20232;-58
2022/01/25 14:30:58;;;;;;;8.63;7.33;;;15.10;35.90;;;;;;6273130;28;20277;-58
2022/01/25 14:34:01;;;;;;;10.27;7.23;;;15.30;34.80;;;;;;6231568;28;20360;-59
2022/01/25 14:37:09;;;;;;;8.33;7.07;;;15.00;35.30;;;;;;6287509;28;20190;-58
2022/01/25 14:40:14;;;;;;;8.87;7.27;;;15.50;34.30;;;;;;6241619;28;20289;-58
2022/01/25 14:43:15;;;;;;;9.80;7.47;;;15.60;34.80;;;;;;6271833;28;20257;-57
2022/01/25 14:46:23;;;;;;;9.43;8.43;;;15.30;34.90;;;;;;6254688;28;20190;-58
2022/01/25 14:49:30;;;;;;;11.67;9.17;;;14.80;35.50;;;;;;6280104;28;20191;-58
2022/01/25 14:52:31;;;;;;;11.73;7.63;;;13.80;37.70;;;;;;6255639;28;20265;-58
2022/01/25 14:55:34;;;;;;;10.63;8.23;;;13.10;38.60;;;;;;6243201;28;20190;-58
2022/01/25 15:01:57;;;;;;;11.83;7.80;;;13.40;38.50;;;;;;6273367;28;20218;-58
2022/01/25 15:05:01;;;;;;;10.53;7.93;;;13.90;37.70;;;;;;6258114;28;20187;-58
2022/01/25 15:08:02;;;;;;;12.07;8.20;;;13.80;37.90;;;;;;6248274;28;20217;-58
2022/01/25 15:11:03;;;;;;;12.67;9.13;;;13.40;38.20;;;;;;6277620;28;20200;-58
2022/01/25 15:14:09;;;;;;;10.37;8.77;;;12.80;39.40;;;;;;6276739;28;20193;-58
2022/01/25 15:17:10;;;;;;;10.67;8.67;;;12.10;40.60;;;;;;6270957;28;20199;-58
2022/01/25 15:20:13;;;;;;;9.40;7.60;;;11.00;42.60;;;;;;6224459;28;20252;-58
2022/01/25 15:23:14;;;;;;;10.93;8.20;;;9.90;45.90;;;;;;6239827;28;20195;-58
2022/01/25 15:26:17;;;;;;;9.83;7.97;;;9.20;47.70;;;;;;6218855;28;20186;-58
2022/01/25 15:29:22;;;;;;;14.63;9.33;;;8.50;49.70;;;;;;6269972;28;20186;-58
2022/01/25 15:32:23;;;;;;;12.47;9.00;;;7.80;51.80;;;;;;6273369;28;20289;-58
2022/01/25 15:35:24;;;;;;;12.87;8.90;;;7.00;54.10;;;;;;6251440;28;20188;-58
2022/01/25 15:38:25;;;;;;;13.93;9.23;;;6.60;55.80;;;;;;6252067;28;20178;-58
2022/01/25 15:41:33;;;;;;;15.07;8.93;;;5.90;58.20;;;;;;6235791;28;20224;-58
2022/01/25 15:44:40;;;;;;;13.77;9.07;;;5.70;59.50;;;;;;6231217;28;20234;-58
2022/01/25 15:47:41;;;;;;;11.00;8.53;;;5.50;60.20;;;;;;6266679;28;20202;-58
2022/01/25 15:50:42;;;;;;;11.17;7.77;;;5.20;61.20;;;;;;6257303;28;20213;-58
2022/01/25 15:53:43;;;;;;;12.57;8.50;;;5.00;62.00;;;;;;6242864;28;20192;-58
2022/01/25 15:56:44;;;;;;;12.20;8.20;;;4.80;62.70;;;;;;6242344;28;20305;-58
2022/01/25 15:59:45;;;;;;;19.80;11.33;;;4.50;63.40;;;;;;6255728;28;20194;-57
2022/01/25 16:02:45;;;;;;;12.20;8.80;;;4.30;65.30;;;;;;6242649;28;20232;-57
2022/01/25 16:05:48;;;;;;;12.90;9.77;;;4.10;65.90;;;;;;6242558;28;20203;-57
2022/01/25 16:08:49;;;;;;;12.40;9.17;;;4.10;65.80;;;;;;6258411;28;20193;-56
2022/01/25 16:11:50;;;;;;;14.23;9.17;;;3.90;66.00;;;;;;6219166;28;20272;-56
2022/01/25 16:14:51;;;;;;;13.30;8.80;;;3.80;66.30;;;;;;6256421;28;20204;-56
2022/01/25 16:17:52;;;;;;;13.37;9.17;;;3.60;66.90;;;;;;6247220;28;20269;-57
2022/01/25 16:20:53;;;;;;;14.23;9.23;;;3.40;67.40;;;;;;6241611;28;20213;-58
2022/01/25 16:23:54;;;;;;;11.43;8.50;;;3.30;67.80;;;;;;6258679;28;20208;-58
2022/01/25 16:26:54;;;;;;;15.00;10.43;;;3.10;68.50;;;;;;6242502;28;20179;-59
2022/01/25 16:29:55;;;;;;;12.13;8.87;;;3.10;68.90;;;;;;6241971;28;20187;-58
2022/01/25 16:32:56;;;;;;;15.03;9.47;;;3.00;69.10;;;;;;6274877;28;20196;-58
2022/01/25 16:35:57;;;;;;;15.00;8.93;;;3.00;69.40;;;;;;6241960;28;20201;-60
2022/01/25 16:38:59;;;;;;;13.17;8.60;;;2.80;69.50;;;;;;6274855;28;20193;-60
2022/01/25 16:42:00;;;;;;;11.43;8.50;;;2.70;69.60;;;;;;6270751;28;20221;-60
2022/01/25 16:45:03;;;;;;;12.07;8.00;;;2.60;70.00;;;;;;6231651;28;20205;-60
2022/01/25 16:48:04;;;;;;;12.47;9.00;;;2.40;70.90;;;;;;6253906;28;20197;-60
2022/01/25 16:51:05;;;;;;;16.97;9.00;;;2.30;71.70;;;;;;6253109;28;20198;-60
2022/01/25 16:54:06;;;;;;;12.23;8.57;;;2.20;71.50;;;;;;6256798;28;20201;-60
2022/01/25 16:57:07;;;;;;;13.40;8.63;;;2.10;71.40;;;;;;6248924;28;20194;-60
2022/01/25 17:00:11;;;;;;;13.53;8.70;;;2.00;71.70;;;;;;6241433;28;20217;-60
2022/01/25 17:03:12;;;;;;;14.03;9.13;;;1.90;71.90;;;;;;6216367;28;20190;-60
2022/01/25 17:06:13;;;;;;;14.90;9.10;;;1.80;72.50;;;;;;6258829;28;20191;-60
2022/01/25 17:09:14;;;;;;;13.80;8.63;;;1.80;72.90;;;;;;6248077;28;20225;-60
2022/01/25 17:12:15;;;;;;;13.17;9.20;;;1.60;73.30;;;;;;6235745;28;20201;-61
2022/01/25 17:15:15;;;;;;;17.13;9.90;;;1.60;73.40;;;;;;6241430;28;20217;-61
2022/01/25 17:18:16;;;;;;;14.63;9.10;;;1.60;73.40;;;;;;6246468;28;20199;-61
2022/01/25 17:21:19;;;;;;;14.10;9.60;;;1.50;73.90;;;;;;6240850;28;20225;-60
2022/01/25 17:24:20;;;;;;;18.00;11.10;;;1.40;74.30;;;;;;6232952;28;20261;-60
2022/01/25 17:27:20;;;;;;;20.67;12.13;;;1.30;74.40;;;;;;6233003;28;20252;-61
2022/01/25 17:30:21;;;;;;;19.07;12.53;;;1.30;74.90;;;;;;6232825;28;20182;-60
2022/01/25 17:33:22;;;;;;;24.23;14.20;;;1.30;75.10;;;;;;6267784;28;20195;-60
2022/01/25 17:36:23;;;;;;;17.83;12.37;;;1.30;74.50;;;;;;6262658;28;20218;-61
2022/01/25 17:39:24;;;;;;;27.87;16.43;;;1.20;74.90;;;;;;6240123;28;20287;-61
2022/01/25 17:42:25;;;;;;;26.37;16.60;;;1.10;75.30;;;;;;6256649;28;20244;-62
2022/01/25 17:45:26;;;;;;;31.33;16.27;;;1.10;75.50;;;;;;6290276;28;20280;-60
2022/01/25 17:48:27;;;;;;;24.37;16.23;;;1.00;75.30;;;;;;6256808;28;20198;-59